Terminal Aerodrome Forecast
Issued by NWS Cleveland, OH

Home | Current Version | Previous Version | Graphics & Text | Print | Product List | Glossary On
Versions: 1 2 3 4 5 6 7 8 9 10 11 12 13 14 15 16 17 18 19 20 21 22 23 24 25 26 27 28 29 30 31 32 33 34 35 36 37
000
FTUS41 KCLE 250800 AAA
TAFCLE
TAF AMD
KCLE 250841Z 2509/2612 21005KT 5SM -SN BR OVC015
     FM251600 04008KT 2SM -SN BR OVC008
     FM251800 04008KT 1SM -SN BR OVC006
     FM252300 05010G20KT 3SM -SN BR OVC015
     FM260400 04012KT 6SM BR VCSH BKN015 OVC020=

USA.gov is the U.S. government's official web portal to all federal, state and local government web resources and services.